createdAt,value
2022-12-03T00:01:15.501Z,96353.00
2022-12-03T00:03:47.413Z,96346.28
2022-12-03T00:06:13.893Z,96348.72
2022-12-03T00:08:40.210Z,96343.31
2022-12-03T00:11:06.518Z,96343.75
2022-12-03T00:13:32.886Z,96341.16
2022-12-03T00:15:59.423Z,96339.47
2022-12-03T00:18:28.013Z,96342.16
2022-12-03T00:20:57.492Z,96347.88
2022-12-03T00:23:29.762Z,96337.94
2022-12-03T00:25:56.181Z,96339.06
2022-12-03T00:28:24.862Z,96343.16
2022-12-03T00:30:58.218Z,96339.50
2022-12-03T00:33:24.691Z,96341.34
2022-12-03T00:35:51.039Z,96334.16
2022-12-03T00:38:17.369Z,96336.56
2022-12-03T00:40:43.773Z,96334.41
2022-12-03T00:43:11.886Z,96344.19
2022-12-03T00:45:38.249Z,96338.78
2022-12-03T00:48:04.681Z,96349.22
2022-12-03T00:50:31.054Z,96351.28
2022-12-03T00:52:57.405Z,96342.59
2022-12-03T00:55:23.729Z,96347.00
2022-12-03T00:57:50.269Z,96355.69
2022-12-03T01:00:16.762Z,96361.38
2022-12-03T01:02:43.848Z,96360.50
2022-12-03T01:05:11.312Z,96353.66
2022-12-03T01:07:37.711Z,96347.72
2022-12-03T01:10:05.251Z,96342.75
2022-12-03T01:12:31.569Z,96342.75
2022-12-03T01:14:57.922Z,96354.34
2022-12-03T01:17:24.328Z,96347.13
2022-12-03T01:19:52.453Z,96354.88
2022-12-03T01:22:19.225Z,96356.63
2022-12-03T01:24:45.623Z,96359.88
2022-12-03T01:27:11.922Z,96346.19
2022-12-03T01:29:38.444Z,96354.09
2022-12-03T01:32:16.611Z,96351.84
2022-12-03T01:34:47.852Z,96357.38
2022-12-03T01:37:14.521Z,96362.69
2022-12-03T01:39:41.232Z,96359.88
2022-12-03T01:42:11.874Z,96365.97
2022-12-03T01:44:39.651Z,96367.41
2022-12-03T01:47:10.749Z,96377.13
2022-12-03T01:49:45.674Z,96380.06
2022-12-03T01:52:15.328Z,96380.69
2022-12-03T01:54:46.186Z,96378.56
2022-12-03T01:57:27.227Z,96366.06
2022-12-03T01:59:55.838Z,96370.97
2022-12-03T02:02:25.675Z,96379.34
2022-12-03T02:04:55.820Z,96381.81
2022-12-03T02:07:24.191Z,96376.91
2022-12-03T02:09:50.749Z,96384.03
2022-12-03T02:12:21.339Z,96373.56
2022-12-03T02:14:47.783Z,96377.50
2022-12-03T02:17:14.333Z,96378.66
2022-12-03T02:19:40.841Z,96378.25
2022-12-03T02:22:25.010Z,96374.00
2022-12-03T02:25:05.448Z,96381.34
2022-12-03T02:27:31.865Z,96373.06
2022-12-03T02:29:58.331Z,96374.13
2022-12-03T02:32:24.710Z,96371.25
2022-12-03T02:34:52.104Z,96365.16
2022-12-03T02:37:24.154Z,96364.94
2022-12-03T02:39:54.627Z,96361.41
2022-12-03T02:42:36.961Z,96361.75
2022-12-03T02:45:06.528Z,96361.66
2022-12-03T02:47:49.604Z,96359.38
2022-12-03T02:50:21.828Z,96358.94
2022-12-03T02:52:49.395Z,96355.19
2022-12-03T02:55:17.609Z,96358.59
2022-12-03T02:57:46.746Z,96379.91
2022-12-03T03:00:13.958Z,96375.66
2022-12-03T03:02:41.797Z,96375.66
2022-12-03T03:05:11.621Z,96368.38
2022-12-03T03:07:39.501Z,96364.72
2022-12-03T03:10:08.997Z,96357.28
2022-12-03T03:12:39.221Z,96354.59
2022-12-03T03:15:07.611Z,96368.88
2022-12-03T03:17:34.218Z,96361.97
2022-12-03T03:20:00.878Z,96358.56
2022-12-03T03:22:34.711Z,96348.78
2022-12-03T03:25:01.669Z,96345.50
2022-12-03T03:27:28.333Z,96346.44
2022-12-03T03:29:56.418Z,96350.22
2022-12-03T03:32:22.879Z,96358.00
2022-12-03T03:34:49.269Z,96346.50
2022-12-03T03:37:15.798Z,96345.84
2022-12-03T03:39:42.263Z,96345.44
2022-12-03T03:42:09.419Z,96346.22
2022-12-03T03:44:36.218Z,96349.47
2022-12-03T03:47:02.797Z,96342.16
2022-12-03T03:49:29.433Z,96334.88
2022-12-03T03:51:55.943Z,96344.91
2022-12-03T03:54:23.211Z,96343.84
2022-12-03T03:56:49.869Z,96348.56
2022-12-03T03:59:16.321Z,96352.00
2022-12-03T04:01:45.009Z,96346.03
2022-12-03T04:04:19.658Z,96351.97
2022-12-03T04:06:46.651Z,96346.50
2022-12-03T04:09:13.078Z,96342.31
2022-12-03T04:11:57.754Z,96336.13
2022-12-03T04:14:24.319Z,96342.97
2022-12-03T04:16:50.704Z,96347.75
2022-12-03T04:19:17.131Z,96354.31
2022-12-03T04:22:02.157Z,96351.72
2022-12-03T04:24:28.522Z,96342.78
2022-12-03T04:27:13.229Z,96351.09
2022-12-03T04:29:39.558Z,96351.09
2022-12-03T04:32:24.611Z,96355.69
2022-12-03T04:35:09.727Z,96352.03
2022-12-03T04:37:36.318Z,96347.59
2022-12-03T04:40:23.142Z,96343.34
2022-12-03T04:42:49.664Z,96339.50
2022-12-03T04:45:16.081Z,96349.00
2022-12-03T04:47:42.407Z,96351.59
2022-12-03T04:50:09.168Z,96343.16
2022-12-03T04:52:35.519Z,96339.94
2022-12-03T04:55:01.865Z,96342.22
2022-12-03T04:57:28.190Z,96344.44
2022-12-03T04:59:54.522Z,96336.47
2022-12-03T05:02:20.926Z,96332.56
2022-12-03T05:04:47.325Z,96333.34
2022-12-03T05:07:13.656Z,96336.75
2022-12-03T05:09:39.979Z,96341.84
2022-12-03T05:12:06.606Z,96348.84
2022-12-03T05:14:32.926Z,96352.28
2022-12-03T05:16:59.301Z,96347.50
2022-12-03T05:19:45.741Z,96343.06
2022-12-03T05:22:12.097Z,96336.75
2022-12-03T05:24:38.438Z,96341.69
2022-12-03T05:27:04.758Z,96331.53
2022-12-03T05:29:31.090Z,96326.09
2022-12-03T05:31:57.417Z,96338.34
2022-12-03T05:34:23.754Z,96338.47
2022-12-03T05:36:50.141Z,96339.59
2022-12-03T05:39:16.453Z,96340.84
2022-12-03T05:42:01.571Z,96341.81
2022-12-03T05:44:27.897Z,96343.34
2022-12-03T05:46:54.221Z,96346.69
2022-12-03T05:49:20.578Z,96338.00
2022-12-03T05:51:46.898Z,96342.69
2022-12-03T05:54:13.293Z,96339.00
2022-12-03T05:56:39.636Z,96337.34
2022-12-03T05:59:06.009Z,96330.00
2022-12-03T06:01:32.353Z,96334.28
2022-12-03T06:03:58.720Z,96331.94
2022-12-03T06:06:25.258Z,96331.06
2022-12-03T06:08:51.589Z,96334.41
2022-12-03T06:11:18.140Z,96347.94
2022-12-03T06:13:44.526Z,96352.69
2022-12-03T06:16:10.935Z,96342.66
2022-12-03T06:18:37.270Z,96349.00
2022-12-03T06:21:03.650Z,96354.41
2022-12-03T06:23:30.004Z,96354.63
2022-12-03T06:25:56.328Z,96350.09
2022-12-03T06:28:22.713Z,96353.19
2022-12-03T06:30:49.138Z,96347.56
2022-12-03T06:33:15.482Z,96341.44
2022-12-03T06:35:41.835Z,96342.00
2022-12-03T06:38:08.160Z,96328.78
2022-12-03T06:40:34.507Z,96315.56
2022-12-03T06:43:00.850Z,96315.47
2022-12-03T06:45:27.229Z,96309.09
2022-12-03T06:47:53.549Z,96321.00
2022-12-03T06:50:19.895Z,96332.09
2022-12-03T06:52:46.416Z,96335.06
2022-12-03T06:55:12.805Z,96332.38
2022-12-03T06:57:39.310Z,96329.94
2022-12-03T07:00:08.672Z,96330.88
2022-12-03T07:02:35.174Z,96326.34
2022-12-03T07:05:01.770Z,96325.97
2022-12-03T07:07:28.330Z,96322.09
2022-12-03T07:09:54.687Z,96331.59
2022-12-03T07:12:21.467Z,96338.81
2022-12-03T07:14:47.805Z,96348.59
2022-12-03T07:17:14.296Z,96344.69
2022-12-03T07:19:40.622Z,96347.88
2022-12-03T07:22:06.937Z,96342.44
2022-12-03T07:24:33.310Z,96346.84
2022-12-03T07:26:59.669Z,96347.72
2022-12-03T07:29:26.051Z,96341.94
2022-12-03T07:31:52.526Z,96347.13
2022-12-03T07:34:18.977Z,96349.78
2022-12-03T07:36:45.338Z,96347.72
2022-12-03T07:39:12.909Z,96345.41
2022-12-03T07:41:39.445Z,96341.81
2022-12-03T07:44:10.820Z,96337.03
2022-12-03T07:46:40.479Z,96330.06
2022-12-03T07:49:06.855Z,96324.97
2022-12-03T07:51:33.254Z,96331.75
2022-12-03T07:53:59.682Z,96331.75
2022-12-03T07:56:26.018Z,96334.53
2022-12-03T07:58:52.321Z,96331.50
2022-12-03T08:01:18.690Z,96326.28
2022-12-03T08:03:45.121Z,96329.16
2022-12-03T08:06:11.461Z,96332.53
2022-12-03T08:08:37.850Z,96324.97
2022-12-03T08:11:04.295Z,96330.56
2022-12-03T08:13:30.726Z,96330.34
2022-12-03T08:16:00.565Z,96329.88
2022-12-03T08:18:28.109Z,96340.19
2022-12-03T08:20:54.642Z,96336.88
2022-12-03T08:23:23.474Z,96345.44
2022-12-03T08:25:51.217Z,96342.31
2022-12-03T08:28:26.527Z,96345.56
2022-12-03T08:31:02.568Z,96343.22
2022-12-03T08:33:36.727Z,96345.59
2022-12-03T08:36:31.446Z,96346.31
2022-12-03T08:39:01.985Z,96344.66
2022-12-03T08:41:48.709Z,96341.06
2022-12-03T08:44:27.361Z,96339.59
2022-12-03T08:47:08.797Z,96340.19
2022-12-03T08:49:35.965Z,96337.19
2022-12-03T08:52:13.138Z,96332.75
2022-12-03T08:54:39.484Z,96331.06
2022-12-03T08:57:22.570Z,96334.28
2022-12-03T08:59:50.321Z,96320.28
2022-12-03T09:02:26.846Z,96326.16
2022-12-03T09:04:55.039Z,96324.28
2022-12-03T09:07:21.487Z,96327.31
2022-12-03T09:09:48.095Z,96325.75
2022-12-03T09:12:14.724Z,96332.41
2022-12-03T09:14:41.085Z,96324.50
2022-12-03T09:17:07.490Z,96321.59
2022-12-03T09:19:34.130Z,96317.88
2022-12-03T09:22:00.725Z,96309.91
2022-12-03T09:24:27.294Z,96310.25
2022-12-03T09:26:53.626Z,96319.13
2022-12-03T09:29:20.103Z,96320.78
2022-12-03T09:31:46.495Z,96322.03
2022-12-03T09:34:12.901Z,96319.25
2022-12-03T09:36:39.298Z,96327.75
2022-12-03T09:39:05.666Z,96320.78
2022-12-03T09:41:32.201Z,96316.09
2022-12-03T09:44:06.205Z,96319.97
2022-12-03T09:46:36.140Z,96306.91
2022-12-03T09:49:05.102Z,96316.63
2022-12-03T09:51:36.031Z,96316.75
2022-12-03T09:54:07.103Z,96302.94
2022-12-03T09:56:37.078Z,96310.72
2022-12-03T09:59:06.857Z,96310.00
2022-12-03T10:01:33.272Z,96302.81
2022-12-03T10:03:59.809Z,96299.75
2022-12-03T10:06:26.189Z,96305.38
2022-12-03T10:08:55.924Z,96308.09
2022-12-03T10:11:25.465Z,96310.50
2022-12-03T10:13:54.387Z,96298.06
2022-12-03T10:16:21.483Z,96291.50
2022-12-03T10:18:53.323Z,96291.53
2022-12-03T10:21:30.627Z,96288.22
2022-12-03T10:24:20.621Z,96277.00
2022-12-03T10:26:48.625Z,96269.34
2022-12-03T10:29:19.145Z,96272.88
2022-12-03T10:31:45.990Z,96276.41
2022-12-03T10:34:12.327Z,96275.34
2022-12-03T10:36:38.746Z,96273.47
2022-12-03T10:39:06.377Z,96265.91
2022-12-03T10:41:32.730Z,96256.13
2022-12-03T10:44:14.387Z,96259.06
2022-12-03T10:46:41.109Z,96260.22
2022-12-03T10:49:16.078Z,96246.00
2022-12-03T10:51:43.587Z,96256.44
2022-12-03T10:54:18.097Z,96244.41
2022-12-03T10:56:45.190Z,96236.56
2022-12-03T10:59:17.718Z,96234.56
2022-12-03T11:01:44.383Z,96230.31
2022-12-03T11:04:19.702Z,96223.69
2022-12-03T11:06:46.073Z,96224.00
2022-12-03T11:09:18.588Z,96218.81
2022-12-03T11:11:45.209Z,96213.53
2022-12-03T11:14:11.768Z,96212.59
2022-12-03T11:16:41.137Z,96208.75
2022-12-03T11:19:13.373Z,96202.13
2022-12-03T11:22:10.066Z,96203.47
2022-12-03T11:24:38.307Z,96200.78
2022-12-03T11:27:04.576Z,96209.78
2022-12-03T11:29:52.218Z,96201.06
2022-12-03T11:32:43.348Z,96207.19
2022-12-03T11:35:27.106Z,96214.66
2022-12-03T11:37:53.492Z,96208.84
2022-12-03T11:40:19.779Z,96208.31
2022-12-03T11:42:48.865Z,96212.28
2022-12-03T11:45:19.383Z,96204.50
2022-12-03T11:48:00.945Z,96211.53
2022-12-03T11:50:39.056Z,96202.94
2022-12-03T11:53:24.622Z,96194.06
2022-12-03T11:56:06.281Z,96191.16
2022-12-03T11:58:34.448Z,96187.75
2022-12-03T12:01:04.016Z,96189.53
2022-12-03T12:03:36.025Z,96185.84
2022-12-03T12:06:06.222Z,96188.41
2022-12-03T12:08:38.188Z,96176.81
2022-12-03T12:11:16.871Z,96175.78
2022-12-03T12:13:43.198Z,96165.06
2022-12-03T12:16:10.140Z,96167.88
2022-12-03T12:18:37.662Z,96151.94
2022-12-03T12:21:44.276Z,96144.22
2022-12-03T12:24:47.726Z,96150.38
2022-12-03T12:27:23.749Z,96151.25
2022-12-03T12:30:02.177Z,96140.78
2022-12-03T12:32:51.813Z,96137.63
2022-12-03T12:35:25.897Z,96139.88
2022-12-03T12:38:07.251Z,96139.16
2022-12-03T12:40:42.423Z,96143.63
2022-12-03T12:43:14.357Z,96131.22
2022-12-03T12:45:43.600Z,96134.03
2022-12-03T12:48:09.863Z,96139.56
2022-12-03T12:50:43.673Z,96134.75
2022-12-03T12:53:26.285Z,96132.44
2022-12-03T12:55:58.581Z,96129.31
2022-12-03T12:58:25.750Z,96133.44
2022-12-03T13:00:54.851Z,96134.69
2022-12-03T13:03:25.457Z,96133.31
2022-12-03T13:05:53.488Z,96131.50
2022-12-03T13:08:32.012Z,96116.50
2022-12-03T13:11:00.695Z,96116.47
2022-12-03T13:13:30.216Z,96110.91
2022-12-03T13:16:06.356Z,96116.84
2022-12-03T13:18:42.934Z,96116.84
2022-12-03T13:21:21.020Z,96110.28
2022-12-03T13:23:49.045Z,96103.44
2022-12-03T13:26:39.241Z,96110.84
2022-12-03T13:29:26.096Z,96104.38
2022-12-03T13:31:55.593Z,96106.34
2022-12-03T13:34:27.500Z,96104.03
2022-12-03T13:36:58.012Z,96105.78
2022-12-03T13:39:33.242Z,96108.78
2022-12-03T13:42:26.967Z,96104.78
2022-12-03T13:44:53.576Z,96103.84
2022-12-03T13:47:22.526Z,96106.22
2022-12-03T13:50:04.528Z,96102.22
2022-12-03T13:52:34.650Z,96107.22
2022-12-03T13:55:03.247Z,96113.06
2022-12-03T13:57:29.616Z,96099.97
2022-12-03T13:59:56.229Z,96102.47
2022-12-03T14:02:22.894Z,96106.03
2022-12-03T14:04:49.357Z,96105.91
2022-12-03T14:07:15.696Z,96102.56
2022-12-03T14:09:42.087Z,96103.44
2022-12-03T14:12:26.710Z,96098.75
2022-12-03T14:14:59.499Z,96096.16
2022-12-03T14:17:25.873Z,96094.69
2022-12-03T14:19:52.864Z,96100.63
2022-12-03T14:22:23.160Z,96096.84
2022-12-03T14:24:50.110Z,96095.66
2022-12-03T14:27:16.482Z,96099.09
2022-12-03T14:29:42.897Z,96094.22
2022-12-03T14:32:09.294Z,96105.22
2022-12-03T14:34:35.683Z,96106.09
2022-12-03T14:37:02.098Z,96101.03
2022-12-03T14:39:28.473Z,96101.31
2022-12-03T14:42:13.066Z,96099.97
2022-12-03T14:44:46.680Z,96099.91
2022-12-03T14:47:16.905Z,96097.03
2022-12-03T14:49:43.334Z,96105.34
2022-12-03T14:52:12.451Z,96100.31
2022-12-03T14:54:41.905Z,96100.06
2022-12-03T14:57:08.814Z,96098.06
2022-12-03T14:59:35.142Z,96097.69
2022-12-03T15:02:01.588Z,96097.38
2022-12-03T15:04:28.057Z,96092.69
2022-12-03T15:06:54.906Z,96095.38
2022-12-03T15:09:21.466Z,96094.38
2022-12-03T15:11:47.779Z,96100.75
2022-12-03T15:14:14.160Z,96095.75
2022-12-03T15:16:40.586Z,96093.69
2022-12-03T15:19:07.041Z,96086.53
2022-12-03T15:21:34.782Z,96096.88
2022-12-03T15:24:16.393Z,96100.28
2022-12-03T15:26:42.726Z,96097.06
2022-12-03T15:29:09.063Z,96104.88
2022-12-03T15:31:35.525Z,96087.09
2022-12-03T15:34:01.902Z,96087.19
2022-12-03T15:36:28.274Z,96091.94
2022-12-03T15:38:54.638Z,96087.41
2022-12-03T15:41:21.398Z,96082.41
2022-12-03T15:43:49.014Z,96088.03
2022-12-03T15:46:15.864Z,96084.47
2022-12-03T15:48:42.461Z,96086.53
2022-12-03T15:51:08.773Z,96080.06
2022-12-03T15:53:35.182Z,96083.06
2022-12-03T15:56:01.566Z,96089.56
2022-12-03T15:58:28.409Z,96092.88
2022-12-03T16:00:55.112Z,96092.66
2022-12-03T16:03:21.525Z,96091.72
2022-12-03T16:05:48.072Z,96099.00
2022-12-03T16:08:14.513Z,96094.09
2022-12-03T16:10:40.880Z,96092.44
2022-12-03T16:13:07.275Z,96093.06
2022-12-03T16:15:35.020Z,96090.41
2022-12-03T16:18:01.522Z,96081.41
2022-12-03T16:20:30.157Z,96092.78
2022-12-03T16:22:57.694Z,96095.28
2022-12-03T16:25:24.030Z,96084.91
2022-12-03T16:27:53.215Z,96078.72
2022-12-03T16:30:19.631Z,96082.44
2022-12-03T16:32:45.981Z,96087.72
2022-12-03T16:35:12.329Z,96084.66
2022-12-03T16:37:38.758Z,96088.84
2022-12-03T16:40:13.944Z,96086.09
2022-12-03T16:42:46.636Z,96075.72
2022-12-03T16:45:24.900Z,96077.75
2022-12-03T16:47:51.354Z,96088.56
2022-12-03T16:50:31.163Z,96078.75
2022-12-03T16:53:03.494Z,96074.25
2022-12-03T16:55:29.853Z,96072.66
2022-12-03T16:57:56.573Z,96077.19
2022-12-03T17:00:23.003Z,96083.72
2022-12-03T17:02:49.421Z,96085.94
2022-12-03T17:05:15.971Z,96084.66
2022-12-03T17:07:42.588Z,96075.13
2022-12-03T17:10:09.418Z,96093.56
2022-12-03T17:13:01.076Z,96082.38
2022-12-03T17:15:22.246Z,96078.66
2022-12-03T17:17:48.824Z,96071.72
2022-12-03T17:20:17.079Z,96070.81
2022-12-03T17:22:43.566Z,96063.59
2022-12-03T17:25:10.894Z,96062.03
2022-12-03T17:27:42.069Z,96062.38
2022-12-03T17:30:11.915Z,96053.31
2022-12-03T17:32:38.343Z,96051.00
2022-12-03T17:35:05.071Z,96051.06
2022-12-03T17:37:31.405Z,96061.59
2022-12-03T17:39:57.773Z,96050.59
2022-12-03T17:42:24.173Z,96046.34
2022-12-03T17:44:50.512Z,96054.97
2022-12-03T17:47:16.823Z,96058.31
2022-12-03T17:49:43.171Z,96053.97
2022-12-03T17:52:09.526Z,96054.53
2022-12-03T17:54:55.583Z,96061.09
2022-12-03T17:57:22.164Z,96054.06
2022-12-03T17:59:48.654Z,96049.16
2022-12-03T18:02:15.479Z,96050.28
2022-12-03T18:04:41.865Z,96040.22
2022-12-03T18:07:08.225Z,96039.91
2022-12-03T18:09:34.610Z,96051.31
2022-12-03T18:12:01.024Z,96045.81
2022-12-03T18:14:27.386Z,96038.34
2022-12-03T18:16:53.735Z,96051.94
2022-12-03T18:19:24.365Z,96046.97
2022-12-03T18:21:57.008Z,96047.72
2022-12-03T18:24:26.495Z,96045.97
2022-12-03T18:27:02.048Z,96045.13
2022-12-03T18:29:28.411Z,96050.31
2022-12-03T18:31:54.826Z,96051.56
2022-12-03T18:34:21.345Z,96049.38
2022-12-03T18:36:48.628Z,96050.00
2022-12-03T18:39:24.105Z,96043.47
2022-12-03T18:41:53.740Z,96043.78
2022-12-03T18:44:23.034Z,96045.25
2022-12-03T18:46:54.336Z,96037.69
2022-12-03T18:49:21.459Z,96048.06
2022-12-03T18:51:59.476Z,96045.78
2022-12-03T18:54:29.080Z,96046.72
2022-12-03T18:56:55.437Z,96045.78
2022-12-03T18:59:28.044Z,96042.06
2022-12-03T19:01:54.519Z,96030.88
2022-12-03T19:04:20.961Z,96038.31
2022-12-03T19:06:47.355Z,96038.97
2022-12-03T19:09:14.232Z,96040.22
2022-12-03T19:11:40.702Z,96052.22
2022-12-03T19:14:13.739Z,96038.75
2022-12-03T19:16:42.301Z,96044.97
2022-12-03T19:19:11.608Z,96030.78
2022-12-03T19:21:43.594Z,96037.91
2022-12-03T19:24:28.039Z,96052.44
2022-12-03T19:26:56.624Z,96056.44
2022-12-03T19:29:26.497Z,96039.88
2022-12-03T19:31:53.077Z,96027.88
2022-12-03T19:34:20.238Z,96037.28
2022-12-03T19:36:49.731Z,96033.44
2022-12-03T19:39:19.165Z,96030.84
2022-12-03T19:41:49.128Z,96025.56
2022-12-03T19:44:17.748Z,96030.44
2022-12-03T19:46:45.865Z,96019.13
2022-12-03T19:49:21.334Z,96018.22
2022-12-03T19:52:14.052Z,96029.41
2022-12-03T19:55:02.019Z,96044.34
2022-12-03T19:57:28.381Z,96032.50
2022-12-03T19:59:55.243Z,96042.06
2022-12-03T20:02:21.904Z,96028.91
2022-12-03T20:04:54.427Z,96015.75
2022-12-03T20:07:20.800Z,96020.41
2022-12-03T20:09:50.790Z,96031.41
2022-12-03T20:12:17.255Z,96017.19
2022-12-03T20:17:30.706Z,96017.59
2022-12-03T20:19:59.565Z,96021.13
2022-12-03T20:22:25.984Z,96027.88
2022-12-03T20:24:52.352Z,96027.34
2022-12-03T20:27:22.850Z,96027.34
2022-12-03T20:29:49.659Z,96027.16
2022-12-03T20:32:16.070Z,96030.78
2022-12-03T20:34:44.242Z,96021.34
2022-12-03T20:37:10.778Z,96036.56
2022-12-03T20:39:37.126Z,96035.00
2022-12-03T20:42:03.609Z,96024.13
2022-12-03T20:44:30.152Z,96022.66
2022-12-03T20:46:57.090Z,96020.41
2022-12-03T20:49:23.624Z,96028.66
2022-12-03T20:51:50.266Z,96031.78
2022-12-03T20:54:16.582Z,96039.47
2022-12-03T20:56:42.958Z,96023.38
2022-12-03T20:59:12.487Z,96012.78
2022-12-03T21:01:40.261Z,96024.63
2022-12-03T21:04:07.904Z,96020.31
2022-12-03T21:06:36.016Z,96018.94
2022-12-03T21:09:05.264Z,96008.06
2022-12-03T21:11:33.385Z,96015.31
2022-12-03T21:14:00.437Z,96009.19
2022-12-03T21:16:59.045Z,96003.81
2022-12-03T21:19:17.864Z,96004.28
2022-12-03T21:21:44.218Z,96004.81
2022-12-03T21:24:11.745Z,96006.38
2022-12-03T21:26:38.127Z,96000.47
2022-12-03T21:29:04.471Z,96000.16
2022-12-03T21:31:31.922Z,96005.16
2022-12-03T21:33:59.304Z,96011.06
2022-12-03T21:36:26.019Z,96018.94
2022-12-03T21:38:52.639Z,96037.50
2022-12-03T21:41:19.226Z,96029.03
2022-12-03T21:43:45.741Z,96035.72
2022-12-03T21:47:12.689Z,96030.84
2022-12-03T21:49:01.161Z,96027.88
2022-12-03T21:51:27.484Z,96030.34
2022-12-03T21:53:53.829Z,96027.34
2022-12-03T21:56:20.599Z,96025.50
2022-12-03T21:58:47.386Z,96008.09
2022-12-03T22:01:22.714Z,96009.72
2022-12-03T22:03:50.475Z,96006.22
2022-12-03T22:06:18.221Z,96007.06
2022-12-03T22:08:45.091Z,96004.16
2022-12-03T22:11:14.211Z,95996.47
2022-12-03T22:13:41.215Z,95994.19
2022-12-03T22:16:10.143Z,95996.44
2022-12-03T22:18:36.784Z,96007.03
2022-12-03T22:21:05.632Z,95993.75
2022-12-03T22:23:32.381Z,95996.84
2022-12-03T22:26:03.662Z,95994.25
2022-12-03T22:28:30.638Z,96003.50
2022-12-03T22:30:57.206Z,96007.53
2022-12-03T22:33:23.669Z,95996.06
2022-12-03T22:36:00.963Z,95991.47
2022-12-03T22:38:29.145Z,95981.91
2022-12-03T22:40:55.773Z,95992.91
2022-12-03T22:43:22.273Z,95989.69
2022-12-03T22:45:53.591Z,96000.59
2022-12-03T22:48:20.098Z,95997.78
2022-12-03T22:50:47.505Z,95988.66
2022-12-03T22:53:14.579Z,96000.28
2022-12-03T22:55:41.661Z,96011.81
2022-12-03T22:58:08.950Z,96001.22
2022-12-03T23:00:40.487Z,96009.94
2022-12-03T23:03:07.882Z,96003.28
2022-12-03T23:05:36.843Z,95998.81
2022-12-03T23:08:05.531Z,96007.94
2022-12-03T23:10:38.066Z,95995.03
2022-12-03T23:13:05.471Z,96004.53
2022-12-03T23:15:32.297Z,96001.16
2022-12-03T23:17:59.183Z,95995.66
2022-12-03T23:20:26.357Z,96002.81
2022-12-03T23:22:53.783Z,95994.19
2022-12-03T23:25:21.059Z,95996.28
2022-12-03T23:27:47.502Z,95986.50
2022-12-03T23:30:16.195Z,96002.69
2022-12-03T23:32:44.273Z,95994.72
2022-12-03T23:35:11.990Z,95994.09
2022-12-03T23:37:38.527Z,95992.84
2022-12-03T23:40:05.552Z,95988.09
2022-12-03T23:42:32.315Z,95989.47
2022-12-03T23:44:58.642Z,95989.00
2022-12-03T23:47:24.999Z,95984.44
2022-12-03T23:49:51.351Z,95987.03
2022-12-03T23:52:17.700Z,95984.69
2022-12-03T23:54:44.061Z,95982.56
2022-12-03T23:57:10.410Z,95976.47
2022-12-03T23:59:36.826Z,95970.19
